Etusivu
METAR-TAF:

METAR-TAF

Lentoasemat :

Saint-Denis, Réunion

Leveyspiiri: 20-53S, Pituuspiiri: 055-31E, korkeus merenpinnasta: 21 m

Tämänhetkinen sää

Tämä raportti tehtiin 37 minuuttia sitten, kello 18.30 UTC
Tuuli 11 kn kaakosta
Lämpötila 22°C
Kosteus 60%
Ilmanpaine 1021 hPa
Pilvistä 5800 ft:n korkeudessa

METAR: FMEE 231830Z AUTO 13011KT //// R14///// // OVC058 22/14 Q1021

Aika: 23:07 (19:07 UTC)

Sääennuste

Tämä raportti tehtiin 2 tuntia ja 7 minuuttia sitten, kello 17.00 UTC
Ennuste voimassa 23. päivästä klo 18 UTC - 24. päivään klo 24 UTC
Tuuli 12 kn kaakosta
Näkyvyys 10 km tai enemmän
Muutamia pilviä 2600 ft:n korkeudessa
From 24. päivästä klo 0500 UTC
Tuuli 20 kn idästä
Näkyvyys 10 km tai enemmän
Hajanaisia pilviä 2600 ft:n korkeudessa
Tulossa
24. päivästä klo 15 UTC - 24. päivään klo 17 UTC
Tuuli 10 kn etelästä/kaakosta

TAF: FMEE 231700Z 2318/2424 14012KT 9999 FEW026 FM240500 10020KT 9999 SCT026 BECMG 2415/2417 16010KT

Säähavainnot ja -ennusteet yli 4000 lentoasemalta (METAR- ja TAF-raportit).

Käytössä olevat sääasemat on merkitty karttaan keltaisilla ja punaisilla pisteillä.

Aseta hiiri pisteen päälle nähdäksesi sääaseman nimen.

Klikkaa sitten nähdäksesi säähavainnot ja -ennusteet.

Kartan vaihtaminen: klikkaa mustalla rastilla varustettuja vihreitä pisteitä, niin voit zoomata sisään; viivalla varustettua vihreää pistettä, niin voit zoomata ulos tai vihreitä nuolia, niin pääset viereisille kartoille.


METAR-TAF: